Airfield :
LOGIN :

Register | Disclaimer

   EN    FR    IT 

 










Legend :    VFR   Marginal VFR   IFR   Intensive IFR   Very Intensive IFR
Visi :
Ceiling :
>= 8 km
>= 3000ft
5 to 8 km
1000 to 3000 ft
1500m to 5 km
500 to 1000 ft
800 to 1500m
200 to 500 ft
< 800m
< 200 ft
Symbols :   Thunderstorms  Fog  Heavy snow  Heavy precipitations  Wind > 20 kt
SIGMETs :     Misc.  Thunderstorms  Icing  Turbulence  Mountain Waves  Volcanic Ashes






- Airport Elevation : 194 ft


EBCV - Chièvres

CURRENT METAR :
  • 251855Z AUTO 18006KT //// SCT049/// 08/06 Q1017 BLU

EXPIRED METARs :
  • 251825Z AUTO 17006KT //// SCT032/// BKN050/// 09/06 Q1017 BLU
  • 251755Z AUTO 18006KT //// BKN032/// BKN046/// 09/06 Q1017 BLU
  • 251725Z AUTO 18007KT //// OVC042/// 09/06 Q1017 BLU
  • 251655Z AUTO 17006KT //// OVC040/// 09/06 Q1017 BLU
  • 251625Z AUTO 17007KT //// OVC042/// 09/06 Q1016 BLU

TAF TAF EBCV
Valid from the 25 at 19:00 until the 26 at 07:00 UTC


251541Z 2519/2607 18005KT 8000 BKN030
BECMG 2519/2521 5000 BR SCT020
PROB40
TEMPO 2602/2607 3500 BR BY EBWM



MET'MAP, your aeronautical weather chart ! - Copyright ORBIFLY December 2007 - Disclaimer

ORBIFLY MET'MAP TEAM :

Programming & Development : Alexandra Zaïnal
Concept & original design : Baudouin d'Aumeries
Assistance for programming : Marc-Olivier Méhu
Technical & hardware support : Manuel Goepfert

Contact : metmap@orbifly.com




SOURCES & CREDITS :

   NOAA